sensor_id;sensor_type;location;lat;lon;timestamp;temperature;humidity
20829;DHT22;10575;50.124;8.582;2023-05-15T00:01:06;14.40;99.90
20829;DHT22;10575;50.124;8.582;2023-05-15T00:03:31;14.40;99.90
20829;DHT22;10575;50.124;8.582;2023-05-15T00:05:57;14.30;99.90
20829;DHT22;10575;50.124;8.582;2023-05-15T00:08:23;14.20;99.90
20829;DHT22;10575;50.124;8.582;2023-05-15T00:10:49;14.20;99.90
20829;DHT22;10575;50.124;8.582;2023-05-15T00:13:16;14.20;99.90
20829;DHT22;10575;50.124;8.582;2023-05-15T00:15:43;14.30;99.90
20829;DHT22;10575;50.124;8.582;2023-05-15T00:18:08;14.30;99.90
20829;DHT22;10575;50.124;8.582;2023-05-15T00:20:34;14.30;99.90
20829;DHT22;10575;50.124;8.582;2023-05-15T00:22:59;14.30;99.90
20829;DHT22;10575;50.124;8.582;2023-05-15T00:25:25;14.20;99.90
20829;DHT22;10575;50.124;8.582;2023-05-15T00:27:50;14.20;99.90
20829;DHT22;10575;50.124;8.582;2023-05-15T00:30:16;14.10;99.90
20829;DHT22;10575;50.124;8.582;2023-05-15T00:32:41;14.10;99.90
20829;DHT22;10575;50.124;8.582;2023-05-15T00:35:07;14.00;99.90
20829;DHT22;10575;50.124;8.582;2023-05-15T00:37:32;14.10;99.90
20829;DHT22;10575;50.124;8.582;2023-05-15T00:39:58;14.00;99.90
20829;DHT22;10575;50.124;8.582;2023-05-15T00:42:24;14.00;99.90
20829;DHT22;10575;50.124;8.582;2023-05-15T00:44:51;13.90;99.90
20829;DHT22;10575;50.124;8.582;2023-05-15T00:47:19;13.80;99.90
20829;DHT22;10575;50.124;8.582;2023-05-15T00:49:46;13.80;99.90
20829;DHT22;10575;50.124;8.582;2023-05-15T00:52:12;13.80;99.90
20829;DHT22;10575;50.124;8.582;2023-05-15T00:54:38;13.80;99.90
20829;DHT22;10575;50.124;8.582;2023-05-15T00:57:04;13.70;99.90
20829;DHT22;10575;50.124;8.582;2023-05-15T00:59:30;13.70;99.90
20829;DHT22;10575;50.124;8.582;2023-05-15T01:01:56;13.60;99.90
20829;DHT22;10575;50.124;8.582;2023-05-15T01:04:22;13.60;99.90
20829;DHT22;10575;50.124;8.582;2023-05-15T01:06:48;13.70;99.90
20829;DHT22;10575;50.124;8.582;2023-05-15T01:09:14;13.60;99.90
20829;DHT22;10575;50.124;8.582;2023-05-15T01:11:41;13.50;99.90
20829;DHT22;10575;50.124;8.582;2023-05-15T01:14:07;13.40;99.90
20829;DHT22;10575;50.124;8.582;2023-05-15T01:16:34;13.30;99.90
20829;DHT22;10575;50.124;8.582;2023-05-15T01:19:00;13.40;99.90
20829;DHT22;10575;50.124;8.582;2023-05-15T01:26:51;13.30;99.90
20829;DHT22;10575;50.124;8.582;2023-05-15T01:29:31;13.20;99.90
20829;DHT22;10575;50.124;8.582;2023-05-15T01:32:05;13.30;99.90
20829;DHT22;10575;50.124;8.582;2023-05-15T01:37:31;13.30;99.90
20829;DHT22;10575;50.124;8.582;2023-05-15T01:40:01;13.30;99.90
20829;DHT22;10575;50.124;8.582;2023-05-15T01:42:33;13.30;99.90
20829;DHT22;10575;50.124;8.582;2023-05-15T01:45:03;13.30;99.90
20829;DHT22;10575;50.124;8.582;2023-05-15T01:47:48;13.40;99.90
20829;DHT22;10575;50.124;8.582;2023-05-15T01:50:16;13.50;99.90
20829;DHT22;10575;50.124;8.582;2023-05-15T01:52:47;13.50;99.90
20829;DHT22;10575;50.124;8.582;2023-05-15T01:55:13;13.40;99.90
20829;DHT22;10575;50.124;8.582;2023-05-15T01:57:41;13.30;99.90
20829;DHT22;10575;50.124;8.582;2023-05-15T02:00:09;13.30;99.90
20829;DHT22;10575;50.124;8.582;2023-05-15T02:02:36;13.20;99.90
20829;DHT22;10575;50.124;8.582;2023-05-15T02:05:02;13.20;99.90
20829;DHT22;10575;50.124;8.582;2023-05-15T02:07:28;13.00;99.90
20829;DHT22;10575;50.124;8.582;2023-05-15T02:09:56;13.00;99.90
20829;DHT22;10575;50.124;8.582;2023-05-15T02:12:23;12.90;99.90
20829;DHT22;10575;50.124;8.582;2023-05-15T02:14:51;12.90;99.90
20829;DHT22;10575;50.124;8.582;2023-05-15T02:17:17;12.90;99.90
20829;DHT22;10575;50.124;8.582;2023-05-15T02:19:42;12.90;99.90
20829;DHT22;10575;50.124;8.582;2023-05-15T02:22:08;12.90;99.90
20829;DHT22;10575;50.124;8.582;2023-05-15T02:24:33;12.90;99.90
20829;DHT22;10575;50.124;8.582;2023-05-15T02:27:19;12.70;99.90
20829;DHT22;10575;50.124;8.582;2023-05-15T02:33:09;12.80;99.90
20829;DHT22;10575;50.124;8.582;2023-05-15T02:35:50;12.80;99.90
20829;DHT22;10575;50.124;8.582;2023-05-15T02:38:22;12.70;99.90
20829;DHT22;10575;50.124;8.582;2023-05-15T02:40:49;12.60;99.90
20829;DHT22;10575;50.124;8.582;2023-05-15T02:43:17;12.70;99.90
20829;DHT22;10575;50.124;8.582;2023-05-15T02:45:44;12.90;99.90
20829;DHT22;10575;50.124;8.582;2023-05-15T02:48:11;13.00;99.90
20829;DHT22;10575;50.124;8.582;2023-05-15T02:50:37;12.90;99.90
20829;DHT22;10575;50.124;8.582;2023-05-15T02:53:04;12.90;99.90
20829;DHT22;10575;50.124;8.582;2023-05-15T02:55:30;12.90;99.90
20829;DHT22;10575;50.124;8.582;2023-05-15T02:57:56;12.80;99.90
20829;DHT22;10575;50.124;8.582;2023-05-15T03:00:22;12.70;99.90
20829;DHT22;10575;50.124;8.582;2023-05-15T03:02:47;12.70;99.90
20829;DHT22;10575;50.124;8.582;2023-05-15T03:05:13;12.80;99.90
20829;DHT22;10575;50.124;8.582;2023-05-15T03:07:38;12.80;99.90
20829;DHT22;10575;50.124;8.582;2023-05-15T03:10:06;12.80;99.90
20829;DHT22;10575;50.124;8.582;2023-05-15T03:12:31;12.80;99.90
20829;DHT22;10575;50.124;8.582;2023-05-15T03:14:57;12.70;99.90
20829;DHT22;10575;50.124;8.582;2023-05-15T03:17:22;12.70;99.90
20829;DHT22;10575;50.124;8.582;2023-05-15T03:19:48;12.70;99.90
20829;DHT22;10575;50.124;8.582;2023-05-15T03:22:13;12.70;99.90
20829;DHT22;10575;50.124;8.582;2023-05-15T03:24:39;12.80;99.90
20829;DHT22;10575;50.124;8.582;2023-05-15T03:27:05;12.80;99.90
20829;DHT22;10575;50.124;8.582;2023-05-15T03:29:30;12.70;99.90
20829;DHT22;10575;50.124;8.582;2023-05-15T03:31:56;12.60;99.90
20829;DHT22;10575;50.124;8.582;2023-05-15T03:34:21;12.40;99.90
20829;DHT22;10575;50.124;8.582;2023-05-15T03:36:47;12.30;99.90
20829;DHT22;10575;50.124;8.582;2023-05-15T03:39:12;12.40;99.90
20829;DHT22;10575;50.124;8.582;2023-05-15T03:41:38;12.40;99.90
20829;DHT22;10575;50.124;8.582;2023-05-15T03:44:03;12.50;99.90
20829;DHT22;10575;50.124;8.582;2023-05-15T03:46:29;12.50;99.90
20829;DHT22;10575;50.124;8.582;2023-05-15T03:48:55;12.40;99.90
20829;DHT22;10575;50.124;8.582;2023-05-15T03:51:21;12.50;99.90
20829;DHT22;10575;50.124;8.582;2023-05-15T03:53:46;12.30;99.90
20829;DHT22;10575;50.124;8.582;2023-05-15T03:56:12;12.10;99.90
20829;DHT22;10575;50.124;8.582;2023-05-15T03:58:37;12.20;99.90
20829;DHT22;10575;50.124;8.582;2023-05-15T04:01:03;12.40;99.90
20829;DHT22;10575;50.124;8.582;2023-05-15T04:03:28;12.40;99.90
20829;DHT22;10575;50.124;8.582;2023-05-15T04:05:54;12.50;99.90
20829;DHT22;10575;50.124;8.582;2023-05-15T04:08:20;12.50;99.90
20829;DHT22;10575;50.124;8.582;2023-05-15T04:10:45;12.60;99.90
20829;DHT22;10575;50.124;8.582;2023-05-15T04:13:11;12.60;99.90
20829;DHT22;10575;50.124;8.582;2023-05-15T04:15:36;12.60;99.90
20829;DHT22;10575;50.124;8.582;2023-05-15T04:18:02;12.70;99.90
20829;DHT22;10575;50.124;8.582;2023-05-15T04:20:27;12.70;99.90
20829;DHT22;10575;50.124;8.582;2023-05-15T04:22:53;12.80;99.90
20829;DHT22;10575;50.124;8.582;2023-05-15T04:25:19;12.80;99.90
20829;DHT22;10575;50.124;8.582;2023-05-15T04:27:45;12.80;99.90
20829;DHT22;10575;50.124;8.582;2023-05-15T04:30:11;12.80;99.90
20829;DHT22;10575;50.124;8.582;2023-05-15T04:32:38;12.90;99.90
20829;DHT22;10575;50.124;8.582;2023-05-15T04:35:05;12.90;99.90
20829;DHT22;10575;50.124;8.582;2023-05-15T04:37:31;13.00;99.90
20829;DHT22;10575;50.124;8.582;2023-05-15T04:39:56;13.00;99.90
20829;DHT22;10575;50.124;8.582;2023-05-15T04:42:22;13.00;99.90
20829;DHT22;10575;50.124;8.582;2023-05-15T04:44:47;13.10;99.90
20829;DHT22;10575;50.124;8.582;2023-05-15T04:47:13;13.10;99.90
20829;DHT22;10575;50.124;8.582;2023-05-15T04:49:40;13.20;99.90
20829;DHT22;10575;50.124;8.582;2023-05-15T04:52:06;13.20;99.90
20829;DHT22;10575;50.124;8.582;2023-05-15T04:54:32;13.30;99.90
20829;DHT22;10575;50.124;8.582;2023-05-15T04:56:57;13.40;99.90
20829;DHT22;10575;50.124;8.582;2023-05-15T04:59:23;13.50;99.90
20829;DHT22;10575;50.124;8.582;2023-05-15T05:01:50;13.70;99.90
20829;DHT22;10575;50.124;8.582;2023-05-15T05:04:15;13.80;99.90
20829;DHT22;10575;50.124;8.582;2023-05-15T05:06:44;13.90;99.90
20829;DHT22;10575;50.124;8.582;2023-05-15T05:09:09;14.00;99.90
20829;DHT22;10575;50.124;8.582;2023-05-15T05:11:35;14.10;99.90
20829;DHT22;10575;50.124;8.582;2023-05-15T05:14:00;14.20;99.90
20829;DHT22;10575;50.124;8.582;2023-05-15T05:16:26;14.30;99.90
20829;DHT22;10575;50.124;8.582;2023-05-15T05:18:51;14.40;99.90
20829;DHT22;10575;50.124;8.582;2023-05-15T05:21:17;14.50;99.90
20829;DHT22;10575;50.124;8.582;2023-05-15T05:23:42;14.60;99.90
20829;DHT22;10575;50.124;8.582;2023-05-15T05:26:08;14.60;99.90
20829;DHT22;10575;50.124;8.582;2023-05-15T05:28:33;14.80;99.90
20829;DHT22;10575;50.124;8.582;2023-05-15T05:30:59;15.00;99.90
20829;DHT22;10575;50.124;8.582;2023-05-15T05:33:26;15.20;99.90
20829;DHT22;10575;50.124;8.582;2023-05-15T05:35:52;15.50;99.90
20829;DHT22;10575;50.124;8.582;2023-05-15T05:38:17;15.90;99.90
20829;DHT22;10575;50.124;8.582;2023-05-15T05:40:43;16.20;99.90
20829;DHT22;10575;50.124;8.582;2023-05-15T05:43:08;16.50;99.90
20829;DHT22;10575;50.124;8.582;2023-05-15T05:45:34;17.00;99.90
20829;DHT22;10575;50.124;8.582;2023-05-15T05:48:00;17.70;99.90
20829;DHT22;10575;50.124;8.582;2023-05-15T05:50:25;18.50;99.90
20829;DHT22;10575;50.124;8.582;2023-05-15T05:52:50;19.70;99.90
20829;DHT22;10575;50.124;8.582;2023-05-15T05:55:16;21.10;99.90
20829;DHT22;10575;50.124;8.582;2023-05-15T05:57:41;22.80;99.90
20829;DHT22;10575;50.124;8.582;2023-05-15T06:00:08;24.70;99.90
20829;DHT22;10575;50.124;8.582;2023-05-15T06:02:38;26.70;99.90
20829;DHT22;10575;50.124;8.582;2023-05-15T06:05:05;28.20;97.90
20829;DHT22;10575;50.124;8.582;2023-05-15T06:07:32;29.40;93.10
20829;DHT22;10575;50.124;8.582;2023-05-15T06:09:58;29.80;89.90
20829;DHT22;10575;50.124;8.582;2023-05-15T06:12:23;29.70;85.20
20829;DHT22;10575;50.124;8.582;2023-05-15T06:14:49;29.20;83.10
20829;DHT22;10575;50.124;8.582;2023-05-15T06:17:14;27.80;88.00
20829;DHT22;10575;50.124;8.582;2023-05-15T06:19:40;27.40;90.60
20829;DHT22;10575;50.124;8.582;2023-05-15T06:22:05;27.10;91.20
20829;DHT22;10575;50.124;8.582;2023-05-15T06:24:31;26.80;90.40
20829;DHT22;10575;50.124;8.582;2023-05-15T06:26:56;26.70;90.20
20829;DHT22;10575;50.124;8.582;2023-05-15T06:29:22;27.00;90.40
20829;DHT22;10575;50.124;8.582;2023-05-15T06:31:48;28.10;87.50
20829;DHT22;10575;50.124;8.582;2023-05-15T06:34:13;28.60;83.60
20829;DHT22;10575;50.124;8.582;2023-05-15T06:36:39;28.00;85.30
20829;DHT22;10575;50.124;8.582;2023-05-15T06:39:05;27.20;85.50
20829;DHT22;10575;50.124;8.582;2023-05-15T06:41:31;26.40;84.90
20829;DHT22;10575;50.124;8.582;2023-05-15T06:43:57;25.80;89.40
20829;DHT22;10575;50.124;8.582;2023-05-15T06:46:23;26.30;90.20
20829;DHT22;10575;50.124;8.582;2023-05-15T06:48:49;27.30;90.30
20829;DHT22;10575;50.124;8.582;2023-05-15T06:51:15;28.10;86.50
20829;DHT22;10575;50.124;8.582;2023-05-15T06:53:40;28.70;82.90
20829;DHT22;10575;50.124;8.582;2023-05-15T06:56:07;28.70;81.70
20829;DHT22;10575;50.124;8.582;2023-05-15T06:58:32;29.10;81.30
20829;DHT22;10575;50.124;8.582;2023-05-15T07:00:59;29.60;80.10
20829;DHT22;10575;50.124;8.582;2023-05-15T07:03:25;30.60;75.90
20829;DHT22;10575;50.124;8.582;2023-05-15T07:05:50;31.10;75.50
20829;DHT22;10575;50.124;8.582;2023-05-15T07:08:16;32.00;71.60
20829;DHT22;10575;50.124;8.582;2023-05-15T07:10:42;33.40;68.50
20829;DHT22;10575;50.124;8.582;2023-05-15T07:13:07;35.60;58.40
20829;DHT22;10575;50.124;8.582;2023-05-15T07:15:33;37.50;52.60
20829;DHT22;10575;50.124;8.582;2023-05-15T07:17:58;38.60;49.60
20829;DHT22;10575;50.124;8.582;2023-05-15T07:20:24;39.70;45.60
20829;DHT22;10575;50.124;8.582;2023-05-15T07:22:49;42.20;42.00
20829;DHT22;10575;50.124;8.582;2023-05-15T07:25:15;44.20;38.00
20829;DHT22;10575;50.124;8.582;2023-05-15T07:27:40;45.40;32.50
20829;DHT22;10575;50.124;8.582;2023-05-15T07:30:07;45.20;31.30
20829;DHT22;10575;50.124;8.582;2023-05-15T07:32:32;46.00;30.80
20829;DHT22;10575;50.124;8.582;2023-05-15T07:34:58;45.80;29.30
20829;DHT22;10575;50.124;8.582;2023-05-15T07:37:23;47.00;28.30
20829;DHT22;10575;50.124;8.582;2023-05-15T07:39:49;45.90;28.30
20829;DHT22;10575;50.124;8.582;2023-05-15T07:42:15;46.30;27.70
20829;DHT22;10575;50.124;8.582;2023-05-15T07:44:40;47.30;27.90
20829;DHT22;10575;50.124;8.582;2023-05-15T07:47:06;47.90;27.80
20829;DHT22;10575;50.124;8.582;2023-05-15T07:49:31;48.70;26.40
20829;DHT22;10575;50.124;8.582;2023-05-15T07:51:57;48.30;26.10
20829;DHT22;10575;50.124;8.582;2023-05-15T07:54:23;48.30;26.10
20829;DHT22;10575;50.124;8.582;2023-05-15T07:56:48;50.00;25.20
20829;DHT22;10575;50.124;8.582;2023-05-15T07:59:14;51.00;23.60
20829;DHT22;10575;50.124;8.582;2023-05-15T08:01:39;51.40;24.00
20829;DHT22;10575;50.124;8.582;2023-05-15T08:04:07;50.40;24.00
20829;DHT22;10575;50.124;8.582;2023-05-15T08:06:33;50.30;23.00
20829;DHT22;10575;50.124;8.582;2023-05-15T08:09:01;50.60;23.30
20829;DHT22;10575;50.124;8.582;2023-05-15T08:11:27;51.70;22.60
20829;DHT22;10575;50.124;8.582;2023-05-15T08:13:52;50.40;23.50
20829;DHT22;10575;50.124;8.582;2023-05-15T08:16:18;51.20;22.20
20829;DHT22;10575;50.124;8.582;2023-05-15T08:18:44;51.70;22.50
20829;DHT22;10575;50.124;8.582;2023-05-15T08:21:09;52.00;22.00
20829;DHT22;10575;50.124;8.582;2023-05-15T08:23:35;50.00;22.80
20829;DHT22;10575;50.124;8.582;2023-05-15T08:26:01;50.90;22.10
20829;DHT22;10575;50.124;8.582;2023-05-15T08:28:26;47.30;25.10
20829;DHT22;10575;50.124;8.582;2023-05-15T08:30:52;48.50;23.30
20829;DHT22;10575;50.124;8.582;2023-05-15T08:33:17;50.30;22.40
20829;DHT22;10575;50.124;8.582;2023-05-15T08:35:43;51.70;20.80
20829;DHT22;10575;50.124;8.582;2023-05-15T08:38:08;52.40;20.20
20829;DHT22;10575;50.124;8.582;2023-05-15T08:40:34;52.60;20.50
20829;DHT22;10575;50.124;8.582;2023-05-15T08:43:05;50.40;21.50
20829;DHT22;10575;50.124;8.582;2023-05-15T08:45:35;49.50;22.80
20829;DHT22;10575;50.124;8.582;2023-05-15T08:48:01;48.50;22.80
20829;DHT22;10575;50.124;8.582;2023-05-15T08:50:30;49.10;23.20
20829;DHT22;10575;50.124;8.582;2023-05-15T08:52:56;50.80;21.70
20829;DHT22;10575;50.124;8.582;2023-05-15T08:55:24;51.50;22.20
20829;DHT22;10575;50.124;8.582;2023-05-15T08:57:50;51.80;21.50
20829;DHT22;10575;50.124;8.582;2023-05-15T09:00:16;52.90;21.40
20829;DHT22;10575;50.124;8.582;2023-05-15T09:02:44;53.70;20.30
20829;DHT22;10575;50.124;8.582;2023-05-15T09:05:10;52.10;20.80
20829;DHT22;10575;50.124;8.582;2023-05-15T09:07:37;50.00;22.40
20829;DHT22;10575;50.124;8.582;2023-05-15T09:10:03;47.70;23.40
20829;DHT22;10575;50.124;8.582;2023-05-15T09:12:32;48.70;22.60
20829;DHT22;10575;50.124;8.582;2023-05-15T09:15:14;50.90;21.30
20829;DHT22;10575;50.124;8.582;2023-05-15T09:17:42;50.80;21.20
20829;DHT22;10575;50.124;8.582;2023-05-15T09:20:30;50.40;21.60
20829;DHT22;10575;50.124;8.582;2023-05-15T09:22:57;49.80;21.80
20829;DHT22;10575;50.124;8.582;2023-05-15T09:25:38;49.10;22.20
20829;DHT22;10575;50.124;8.582;2023-05-15T09:28:24;46.80;23.00
20829;DHT22;10575;50.124;8.582;2023-05-15T09:31:02;43.60;24.30
20829;DHT22;10575;50.124;8.582;2023-05-15T09:33:33;40.70;28.40
20829;DHT22;10575;50.124;8.582;2023-05-15T09:36:03;37.60;30.00
20829;DHT22;10575;50.124;8.582;2023-05-15T09:38:31;35.30;33.80
20829;DHT22;10575;50.124;8.582;2023-05-15T09:41:05;33.70;34.90
20829;DHT22;10575;50.124;8.582;2023-05-15T09:43:38;31.50;40.30
20829;DHT22;10575;50.124;8.582;2023-05-15T09:46:05;30.40;42.00
20829;DHT22;10575;50.124;8.582;2023-05-15T09:48:31;29.30;45.40
20829;DHT22;10575;50.124;8.582;2023-05-15T09:50:57;28.10;47.90
20829;DHT22;10575;50.124;8.582;2023-05-15T09:53:23;27.00;50.00
20829;DHT22;10575;50.124;8.582;2023-05-15T09:55:49;26.40;52.00
20829;DHT22;10575;50.124;8.582;2023-05-15T09:58:16;25.70;54.60
20829;DHT22;10575;50.124;8.582;2023-05-15T10:00:43;24.70;56.30
20829;DHT22;10575;50.124;8.582;2023-05-15T10:03:10;24.50;57.90
20829;DHT22;10575;50.124;8.582;2023-05-15T10:05:37;24.30;58.50
20829;DHT22;10575;50.124;8.582;2023-05-15T10:08:03;24.20;59.90
20829;DHT22;10575;50.124;8.582;2023-05-15T10:10:30;24.00;60.70
20829;DHT22;10575;50.124;8.582;2023-05-15T10:12:57;24.10;60.80
20829;DHT22;10575;50.124;8.582;2023-05-15T10:15:26;24.50;59.70
20829;DHT22;10575;50.124;8.582;2023-05-15T10:17:52;24.70;59.60
20829;DHT22;10575;50.124;8.582;2023-05-15T10:20:20;25.20;59.10
20829;DHT22;10575;50.124;8.582;2023-05-15T10:22:48;25.80;59.10
20829;DHT22;10575;50.124;8.582;2023-05-15T10:27:49;25.80;57.60
20829;DHT22;10575;50.124;8.582;2023-05-15T10:30:15;25.70;56.80
20829;DHT22;10575;50.124;8.582;2023-05-15T10:32:43;25.50;57.30
20829;DHT22;10575;50.124;8.582;2023-05-15T10:35:09;25.20;58.50
20829;DHT22;10575;50.124;8.582;2023-05-15T10:37:36;25.20;58.30
20829;DHT22;10575;50.124;8.582;2023-05-15T10:40:03;25.00;58.80
20829;DHT22;10575;50.124;8.582;2023-05-15T10:42:31;24.70;59.30
20829;DHT22;10575;50.124;8.582;2023-05-15T10:44:58;24.10;59.50
20829;DHT22;10575;50.124;8.582;2023-05-15T10:47:26;23.90;59.60
20829;DHT22;10575;50.124;8.582;2023-05-15T10:49:52;23.50;60.50
20829;DHT22;10575;50.124;8.582;2023-05-15T10:52:17;22.90;62.60
20829;DHT22;10575;50.124;8.582;2023-05-15T10:54:43;22.60;66.10
20829;DHT22;10575;50.124;8.582;2023-05-15T10:57:09;22.60;67.70
20829;DHT22;10575;50.124;8.582;2023-05-15T10:59:35;22.70;68.00
20829;DHT22;10575;50.124;8.582;2023-05-15T11:04:46;22.70;66.50
20829;DHT22;10575;50.124;8.582;2023-05-15T11:07:14;22.60;68.60
20829;DHT22;10575;50.124;8.582;2023-05-15T11:09:40;22.70;67.10
20829;DHT22;10575;50.124;8.582;2023-05-15T11:12:09;22.60;68.00
20829;DHT22;10575;50.124;8.582;2023-05-15T11:14:41;22.80;66.70
20829;DHT22;10575;50.124;8.582;2023-05-15T11:17:11;22.60;66.70
20829;DHT22;10575;50.124;8.582;2023-05-15T11:25:05;22.70;67.20
20829;DHT22;10575;50.124;8.582;2023-05-15T11:27:43;22.70;68.70
20829;DHT22;10575;50.124;8.582;2023-05-15T11:30:19;22.80;67.50
20829;DHT22;10575;50.124;8.582;2023-05-15T11:35:14;23.00;70.40
20829;DHT22;10575;50.124;8.582;2023-05-15T11:37:47;23.50;68.30
20829;DHT22;10575;50.124;8.582;2023-05-15T11:40:21;23.80;63.90
20829;DHT22;10575;50.124;8.582;2023-05-15T11:43:07;23.90;63.20
20829;DHT22;10575;50.124;8.582;2023-05-15T11:45:35;24.30;63.60
20829;DHT22;10575;50.124;8.582;2023-05-15T11:48:02;24.30;62.80
20829;DHT22;10575;50.124;8.582;2023-05-15T11:50:30;24.80;60.70
20829;DHT22;10575;50.124;8.582;2023-05-15T11:52:57;24.60;60.40
20829;DHT22;10575;50.124;8.582;2023-05-15T11:55:23;23.90;61.40
20829;DHT22;10575;50.124;8.582;2023-05-15T11:57:49;23.90;63.30
20829;DHT22;10575;50.124;8.582;2023-05-15T12:00:15;23.90;63.90
20829;DHT22;10575;50.124;8.582;2023-05-15T12:02:41;23.80;62.50
20829;DHT22;10575;50.124;8.582;2023-05-15T12:05:07;23.70;60.60
20829;DHT22;10575;50.124;8.582;2023-05-15T12:07:43;23.60;60.40
20829;DHT22;10575;50.124;8.582;2023-05-15T12:10:09;23.40;60.80
20829;DHT22;10575;50.124;8.582;2023-05-15T12:12:38;23.70;60.10
20829;DHT22;10575;50.124;8.582;2023-05-15T12:15:04;23.70;56.30
20829;DHT22;10575;50.124;8.582;2023-05-15T12:17:31;23.50;57.50
20829;DHT22;10575;50.124;8.582;2023-05-15T12:19:58;23.60;58.60
20829;DHT22;10575;50.124;8.582;2023-05-15T12:22:24;23.70;58.60
20829;DHT22;10575;50.124;8.582;2023-05-15T12:24:49;23.60;58.70
20829;DHT22;10575;50.124;8.582;2023-05-15T12:27:15;23.70;59.70
20829;DHT22;10575;50.124;8.582;2023-05-15T12:29:41;24.00;59.10
20829;DHT22;10575;50.124;8.582;2023-05-15T12:32:08;24.00;58.70
20829;DHT22;10575;50.124;8.582;2023-05-15T12:34:34;23.80;59.00
20829;DHT22;10575;50.124;8.582;2023-05-15T12:36:59;23.50;58.00
20829;DHT22;10575;50.124;8.582;2023-05-15T12:39:25;23.50;60.40
20829;DHT22;10575;50.124;8.582;2023-05-15T12:41:52;23.50;61.60
20829;DHT22;10575;50.124;8.582;2023-05-15T12:44:20;23.50;64.10
20829;DHT22;10575;50.124;8.582;2023-05-15T12:46:46;23.40;65.10
20829;DHT22;10575;50.124;8.582;2023-05-15T12:49:12;23.50;64.60
20829;DHT22;10575;50.124;8.582;2023-05-15T12:51:44;23.60;63.10
20829;DHT22;10575;50.124;8.582;2023-05-15T12:54:19;23.30;64.30
20829;DHT22;10575;50.124;8.582;2023-05-15T12:56:46;23.00;65.00
20829;DHT22;10575;50.124;8.582;2023-05-15T12:59:12;22.90;64.30
20829;DHT22;10575;50.124;8.582;2023-05-15T13:01:39;22.70;65.30
20829;DHT22;10575;50.124;8.582;2023-05-15T13:04:06;22.70;65.10
20829;DHT22;10575;50.124;8.582;2023-05-15T13:06:32;22.70;65.30
20829;DHT22;10575;50.124;8.582;2023-05-15T13:08:57;22.70;63.40
20829;DHT22;10575;50.124;8.582;2023-05-15T13:11:28;22.60;60.40
20829;DHT22;10575;50.124;8.582;2023-05-15T13:13:54;22.50;62.60
20829;DHT22;10575;50.124;8.582;2023-05-15T13:16:25;22.30;65.80
20829;DHT22;10575;50.124;8.582;2023-05-15T13:18:51;22.00;63.20
20829;DHT22;10575;50.124;8.582;2023-05-15T13:21:17;21.40;62.50
20829;DHT22;10575;50.124;8.582;2023-05-15T13:23:43;20.90;68.30
20829;DHT22;10575;50.124;8.582;2023-05-15T13:26:09;20.10;74.30
20829;DHT22;10575;50.124;8.582;2023-05-15T13:28:34;19.30;80.00
20829;DHT22;10575;50.124;8.582;2023-05-15T13:31:00;18.60;83.20
20829;DHT22;10575;50.124;8.582;2023-05-15T13:33:25;18.10;86.40
20829;DHT22;10575;50.124;8.582;2023-05-15T13:35:52;17.70;90.20
20829;DHT22;10575;50.124;8.582;2023-05-15T13:38:17;17.40;91.40
20829;DHT22;10575;50.124;8.582;2023-05-15T13:40:43;17.20;94.30
20829;DHT22;10575;50.124;8.582;2023-05-15T13:43:08;17.00;95.50
20829;DHT22;10575;50.124;8.582;2023-05-15T13:45:34;17.00;97.70
20829;DHT22;10575;50.124;8.582;2023-05-15T13:48:00;16.90;99.90
20829;DHT22;10575;50.124;8.582;2023-05-15T13:50:25;16.90;99.90
20829;DHT22;10575;50.124;8.582;2023-05-15T13:52:51;16.90;99.20
20829;DHT22;10575;50.124;8.582;2023-05-15T13:55:18;17.10;99.90
20829;DHT22;10575;50.124;8.582;2023-05-15T13:57:44;17.30;99.90
20829;DHT22;10575;50.124;8.582;2023-05-15T14:00:11;17.60;99.20
20829;DHT22;10575;50.124;8.582;2023-05-15T14:02:38;17.90;99.90
20829;DHT22;10575;50.124;8.582;2023-05-15T14:05:04;18.20;99.90
20829;DHT22;10575;50.124;8.582;2023-05-15T14:07:29;18.20;99.90
20829;DHT22;10575;50.124;8.582;2023-05-15T14:09:56;17.80;99.90
20829;DHT22;10575;50.124;8.582;2023-05-15T14:12:22;17.50;99.90
20829;DHT22;10575;50.124;8.582;2023-05-15T14:14:48;17.30;99.90
20829;DHT22;10575;50.124;8.582;2023-05-15T14:17:14;17.10;99.90
20829;DHT22;10575;50.124;8.582;2023-05-15T14:19:43;16.80;99.90
20829;DHT22;10575;50.124;8.582;2023-05-15T14:22:09;16.70;99.90
20829;DHT22;10575;50.124;8.582;2023-05-15T14:24:35;16.50;99.90
20829;DHT22;10575;50.124;8.582;2023-05-15T14:27:00;16.40;99.90
20829;DHT22;10575;50.124;8.582;2023-05-15T14:29:26;16.50;99.90
20829;DHT22;10575;50.124;8.582;2023-05-15T14:31:51;16.50;99.90
20829;DHT22;10575;50.124;8.582;2023-05-15T14:34:18;16.50;99.90
20829;DHT22;10575;50.124;8.582;2023-05-15T14:36:43;16.40;99.90
20829;DHT22;10575;50.124;8.582;2023-05-15T14:39:12;16.50;99.90
20829;DHT22;10575;50.124;8.582;2023-05-15T14:41:38;16.50;99.90
20829;DHT22;10575;50.124;8.582;2023-05-15T14:44:03;16.30;99.90
20829;DHT22;10575;50.124;8.582;2023-05-15T14:46:29;16.30;99.90
20829;DHT22;10575;50.124;8.582;2023-05-15T14:48:54;16.30;99.90
20829;DHT22;10575;50.124;8.582;2023-05-15T14:51:20;16.30;99.90
20829;DHT22;10575;50.124;8.582;2023-05-15T14:53:45;16.30;99.90
20829;DHT22;10575;50.124;8.582;2023-05-15T14:56:11;16.20;99.90
20829;DHT22;10575;50.124;8.582;2023-05-15T14:58:36;16.20;99.90
20829;DHT22;10575;50.124;8.582;2023-05-15T15:01:02;16.10;99.90
20829;DHT22;10575;50.124;8.582;2023-05-15T15:03:28;16.10;99.90
20829;DHT22;10575;50.124;8.582;2023-05-15T15:05:54;16.10;99.90
20829;DHT22;10575;50.124;8.582;2023-05-15T15:08:19;16.10;99.90
20829;DHT22;10575;50.124;8.582;2023-05-15T15:10:45;16.20;99.90
20829;DHT22;10575;50.124;8.582;2023-05-15T15:13:11;16.40;99.90
20829;DHT22;10575;50.124;8.582;2023-05-15T15:15:38;16.70;99.90
20829;DHT22;10575;50.124;8.582;2023-05-15T15:18:05;17.00;99.90
20829;DHT22;10575;50.124;8.582;2023-05-15T15:20:31;17.20;99.90
20829;DHT22;10575;50.124;8.582;2023-05-15T15:22:57;17.40;99.90
20829;DHT22;10575;50.124;8.582;2023-05-15T15:25:22;17.70;99.90
20829;DHT22;10575;50.124;8.582;2023-05-15T15:27:48;17.70;99.90
20829;DHT22;10575;50.124;8.582;2023-05-15T15:30:15;17.60;99.90
20829;DHT22;10575;50.124;8.582;2023-05-15T15:32:41;17.50;99.90
20829;DHT22;10575;50.124;8.582;2023-05-15T15:35:07;17.60;99.90
20829;DHT22;10575;50.124;8.582;2023-05-15T15:37:34;17.80;99.90
20829;DHT22;10575;50.124;8.582;2023-05-15T15:40:01;17.80;99.90
20829;DHT22;10575;50.124;8.582;2023-05-15T15:42:27;17.60;99.90
20829;DHT22;10575;50.124;8.582;2023-05-15T15:44:54;17.30;99.90
20829;DHT22;10575;50.124;8.582;2023-05-15T15:47:20;17.00;99.90
20829;DHT22;10575;50.124;8.582;2023-05-15T15:49:45;16.80;99.90
20829;DHT22;10575;50.124;8.582;2023-05-15T15:52:11;16.80;99.90